This is the latest recevied weather packets stored in our database for station/object NR0Q. If no packets are shown the sender has not sent any weather packets the latest 10 day(s).
| Time | Temp. | Humidity | Pressure | Rain* | Wind** | Luminosity | Snow |
|---|---|---|---|---|---|---|---|
| 1778209201 | 13.33° C | 67% | 1014.6 hPa | 0 mm | - | - | - |
| 1778208301 | 13.89° C | 65% | 1014.6 hPa | 0 mm | - | - | - |
| 1778207401 | 14.44° C | 64% | 1014.6 hPa | 0 mm | - | - | - |
| 1778206501 | 15.56° C | 60% | 1014.6 hPa | 0 mm | - | - | - |
| 1778205601 | 17.22° C | 51% | 1014.6 hPa | 0 mm | - | - | - |
| 1778204701 | 17.78° C | 46% | 1014.6 hPa | 0 mm | - | - | - |
| 1778203801 | 18.33° C | 44% | 1013.6 hPa | 0 mm | - | - | - |
| 1778202902 | 18.89° C | 42% | 1013.6 hPa | 0 mm | - | - | - |
| 1778202001 | 20° C | 39% | 1013.6 hPa | 0 mm | - | - | - |
| 1778201102 | 20.56° C | 37% | 1013.6 hPa | 0 mm | - | - | - |
| 1778200201 | 21.11° C | 36% | 1013.6 hPa | 0 mm | - | - | - |
| 1778199302 | 21.11° C | 34% | 1013.6 hPa | 0 mm | - | - | - |
| 1778198402 | 21.67° C | 35% | 1013.6 hPa | 0 mm | - | - | - |
| 1778197501 | 21.67° C | 34% | 1013.6 hPa | 0 mm | - | - | - |
| 1778196602 | 21.67° C | 34% | 1013.6 hPa | 0 mm | - | - | - |
| 1778195701 | 21.67° C | 34% | 1013.6 hPa | 0 mm | - | - | - |
| 1778194801 | 21.67° C | 34% | 1014.6 hPa | 0 mm | - | - | - |
| 1778193901 | 21.67° C | 34% | 1014.6 hPa | 0 mm | - | - | - |
| 1778193001 | 22.22° C | 34% | 1014.6 hPa | 0 mm | - | - | - |
| 1778192102 | 21.67° C | 36% | 1014.6 hPa | 0 mm | - | - | - |
| 1778191201 | 21.67° C | 35% | 1014.6 hPa | 0 mm | - | - | - |
| 1778190302 | 21.67° C | 35% | 1014.6 hPa | 0 mm | - | - | - |
| 1778189401 | 21.67° C | 36% | 1014.6 hPa | 0 mm | - | - | - |
| 1778188501 | 22.22° C | 35% | 1015.6 hPa | 0 mm | - | - | - |
| 1778187602 | 21.67° C | 36% | 1015.6 hPa | 0 mm | - | - | - |
* Rain latest hour (hover to see other rain measurements)
** Current wind speed in m/s (hover to see current wind gust speed)